createdAt,value
2022-11-11T00:01:09.293Z,4.00
2022-11-11T00:03:37.522Z,4.00
2022-11-11T00:06:06.492Z,0.40
2022-11-11T00:08:36.104Z,0.00
2022-11-11T00:11:04.728Z,3.00
2022-11-11T00:13:33.118Z,3.20
2022-11-11T00:16:05.968Z,4.40
2022-11-11T00:18:48.081Z,3.00
2022-11-11T00:24:37.831Z,6.00
2022-11-11T00:27:06.754Z,4.00
2022-11-11T00:29:35.579Z,5.60
2022-11-11T00:32:17.926Z,5.60
2022-11-11T00:35:06.465Z,6.00
2022-11-11T00:37:36.572Z,4.00
2022-11-11T00:40:07.178Z,1.40
2022-11-11T00:42:35.406Z,5.20
2022-11-11T00:45:03.871Z,4.00
2022-11-11T00:47:46.234Z,6.00
2022-11-11T00:50:30.664Z,6.00
2022-11-11T00:52:59.165Z,6.00
2022-11-11T00:55:28.754Z,5.20
2022-11-11T00:57:57.035Z,5.20
2022-11-11T01:00:25.310Z,5.20
2022-11-11T01:02:53.672Z,5.20
2022-11-11T01:05:22.260Z,3.00
2022-11-11T01:07:50.877Z,4.00
2022-11-11T01:10:38.473Z,3.00
2022-11-11T01:13:14.744Z,6.60
2022-11-11T01:15:43.686Z,4.40
2022-11-11T01:18:12.354Z,6.00
2022-11-11T01:20:40.651Z,3.40
2022-11-11T01:23:09.506Z,4.00
2022-11-11T01:25:37.956Z,6.00
2022-11-11T01:28:07.847Z,6.60
2022-11-11T01:30:36.528Z,6.00
2022-11-11T01:33:04.990Z,6.00
2022-11-11T01:35:33.463Z,6.00
2022-11-11T01:38:02.138Z,3.40
2022-11-11T01:40:30.459Z,3.00
2022-11-11T01:43:18.952Z,3.80
2022-11-11T01:45:50.693Z,6.00
2022-11-11T01:48:34.509Z,1.00
2022-11-11T01:51:02.926Z,4.00
2022-11-11T01:53:31.293Z,4.00
2022-11-11T01:56:00.393Z,3.00
2022-11-11T01:58:30.139Z,5.60
2022-11-11T02:00:58.993Z,4.80
2022-11-11T02:03:27.856Z,2.60
2022-11-11T02:05:57.912Z,6.00
2022-11-11T02:08:34.248Z,4.80
2022-11-11T02:11:03.891Z,3.80
2022-11-11T02:13:47.691Z,1.00
2022-11-11T02:16:16.069Z,5.60
2022-11-11T02:18:44.753Z,4.00
2022-11-11T02:21:15.336Z,4.80
2022-11-11T02:23:46.260Z,4.00
2022-11-11T02:26:17.217Z,2.60
2022-11-11T02:28:45.505Z,1.00
2022-11-11T02:31:14.029Z,4.80
2022-11-11T02:33:42.257Z,4.80
2022-11-11T02:36:11.197Z,6.00
2022-11-11T02:38:39.670Z,4.00
2022-11-11T02:41:21.774Z,3.80
2022-11-11T02:43:51.560Z,3.00
2022-11-11T02:46:19.815Z,4.00
2022-11-11T02:48:48.239Z,3.60
2022-11-11T02:51:16.643Z,3.60
2022-11-11T02:53:44.911Z,3.00
2022-11-11T02:56:33.437Z,6.00
2022-11-11T02:59:03.219Z,4.00
2022-11-11T03:01:31.680Z,3.60
2022-11-11T03:04:00.330Z,4.40
2022-11-11T03:06:28.689Z,5.20
2022-11-11T03:08:57.175Z,3.00
2022-11-11T03:11:29.047Z,3.40
2022-11-11T03:13:57.693Z,3.80
2022-11-11T03:16:41.385Z,4.00
2022-11-11T03:19:10.144Z,3.20
2022-11-11T03:24:46.897Z,3.40
2022-11-11T03:27:14.113Z,3.40
2022-11-11T03:29:43.097Z,1.40
2022-11-11T03:32:12.662Z,3.00
2022-11-11T03:34:41.112Z,3.20
2022-11-11T03:37:24.438Z,6.40
2022-11-11T03:39:52.674Z,4.00
2022-11-11T03:42:21.228Z,4.00
2022-11-11T03:44:49.436Z,4.00
2022-11-11T03:47:19.022Z,4.00
2022-11-11T03:49:47.544Z,4.00
2022-11-11T03:52:15.757Z,1.00
2022-11-11T03:54:43.937Z,4.00
2022-11-11T03:57:26.255Z,3.40
2022-11-11T03:59:56.505Z,3.00
2022-11-11T04:02:39.862Z,3.00
2022-11-11T04:05:22.344Z,4.00
2022-11-11T04:08:06.312Z,3.40
2022-11-11T04:10:34.592Z,1.80
2022-11-11T04:13:16.571Z,3.40
2022-11-11T04:15:58.851Z,3.20
2022-11-11T04:18:42.214Z,4.00
2022-11-11T04:21:26.144Z,3.40
2022-11-11T04:23:55.312Z,1.40
2022-11-11T04:26:23.066Z,1.80
2022-11-11T04:29:05.449Z,4.40
2022-11-11T04:31:33.644Z,3.00
2022-11-11T04:34:02.233Z,3.00
2022-11-11T04:36:30.425Z,3.20
2022-11-11T04:39:12.705Z,3.80
2022-11-11T04:42:06.622Z,4.00
2022-11-11T04:44:43.132Z,2.20
2022-11-11T04:47:11.350Z,3.40
2022-11-11T04:49:40.923Z,3.40
2022-11-11T04:52:24.754Z,2.20
2022-11-11T04:55:06.807Z,3.80
2022-11-11T04:57:35.137Z,4.00
2022-11-11T05:00:03.390Z,3.20
2022-11-11T05:02:45.371Z,0.00
2022-11-11T05:05:15.312Z,3.00
2022-11-11T05:07:57.290Z,1.00
2022-11-11T05:10:26.086Z,1.00
2022-11-11T05:12:54.307Z,3.00
2022-11-11T05:15:36.312Z,3.00
2022-11-11T05:18:18.701Z,4.00
2022-11-11T05:21:04.733Z,3.00
2022-11-11T05:23:47.032Z,3.60
2022-11-11T05:26:15.237Z,4.00
2022-11-11T05:28:43.433Z,3.20
2022-11-11T05:31:11.653Z,3.20
2022-11-11T05:33:39.836Z,1.00
2022-11-11T05:36:09.946Z,3.00
2022-11-11T05:38:38.420Z,0.80
2022-11-11T05:41:06.860Z,4.00
2022-11-11T05:43:35.069Z,1.40
2022-11-11T05:46:05.093Z,0.60
2022-11-11T05:48:33.589Z,3.20
2022-11-11T05:51:01.810Z,3.00
2022-11-11T05:53:31.514Z,3.80
2022-11-11T05:55:59.755Z,3.00
2022-11-11T05:58:28.031Z,3.40
2022-11-11T06:00:56.214Z,1.40
2022-11-11T06:03:25.514Z,3.40
2022-11-11T06:05:53.929Z,1.40
2022-11-11T06:08:22.161Z,0.80
2022-11-11T06:10:53.372Z,3.60
2022-11-11T06:13:21.842Z,3.40
2022-11-11T06:15:50.319Z,3.60
2022-11-11T06:18:18.648Z,3.00
2022-11-11T06:20:47.169Z,6.00
2022-11-11T06:23:15.371Z,4.00
2022-11-11T06:25:57.373Z,4.00
2022-11-11T06:28:26.969Z,3.00
2022-11-11T06:30:55.150Z,3.80
2022-11-11T06:33:23.720Z,3.00
2022-11-11T06:35:53.252Z,4.00
2022-11-11T06:38:22.474Z,2.60
2022-11-11T06:40:50.657Z,3.00
2022-11-11T06:43:18.913Z,5.60
2022-11-11T06:45:51.319Z,1.00
2022-11-11T06:48:19.615Z,5.20
2022-11-11T06:50:47.813Z,4.00
2022-11-11T06:53:18.015Z,1.40
2022-11-11T06:55:46.297Z,3.00
2022-11-11T06:58:16.496Z,4.00
2022-11-11T07:00:45.063Z,1.40
2022-11-11T07:03:15.761Z,4.80
2022-11-11T07:05:44.198Z,3.00
2022-11-11T07:08:13.348Z,3.00
2022-11-11T07:10:42.821Z,1.40
2022-11-11T07:13:11.126Z,1.80
2022-11-11T07:15:39.337Z,3.20
2022-11-11T07:18:08.601Z,3.00
2022-11-11T07:20:38.585Z,1.00
2022-11-11T07:23:07.084Z,3.20
2022-11-11T07:25:35.327Z,3.80
2022-11-11T07:28:03.613Z,3.40
2022-11-11T07:30:31.797Z,3.00
2022-11-11T07:33:00.005Z,4.00
2022-11-11T07:35:28.204Z,3.20
2022-11-11T07:37:57.795Z,4.00
2022-11-11T07:40:26.309Z,3.00
2022-11-11T07:42:54.512Z,3.00
2022-11-11T07:45:22.832Z,3.40
2022-11-11T07:47:51.094Z,4.40
2022-11-11T07:50:19.600Z,6.00
2022-11-11T07:52:50.297Z,4.00
2022-11-11T07:55:19.943Z,4.00
2022-11-11T07:57:48.169Z,3.80
2022-11-11T08:00:17.520Z,4.00
2022-11-11T08:02:49.198Z,1.80
2022-11-11T08:05:17.558Z,3.60
2022-11-11T08:07:45.794Z,5.20
2022-11-11T08:10:14.465Z,3.80
2022-11-11T08:12:57.847Z,3.20
2022-11-11T08:15:26.078Z,4.00
2022-11-11T08:17:54.272Z,2.60
2022-11-11T08:20:22.483Z,3.40
2022-11-11T08:23:28.406Z,1.00
2022-11-11T08:25:47.034Z,4.40
2022-11-11T08:28:16.634Z,4.00
2022-11-11T08:30:44.848Z,4.00
2022-11-11T08:33:32.701Z,3.00
2022-11-11T08:36:01.408Z,1.00
2022-11-11T08:38:29.812Z,2.20
2022-11-11T08:41:00.890Z,3.00
2022-11-11T08:43:37.195Z,3.00
2022-11-11T08:46:06.147Z,3.00
2022-11-11T08:48:34.474Z,3.60
2022-11-11T08:51:04.378Z,0.60
2022-11-11T08:53:32.739Z,4.00
2022-11-11T08:56:03.379Z,5.20
2022-11-11T08:58:32.952Z,3.60
2022-11-11T09:01:02.096Z,2.20
2022-11-11T09:03:30.842Z,3.00
2022-11-11T09:05:59.149Z,4.40
2022-11-11T09:08:27.443Z,8.20
2022-11-11T09:10:55.633Z,9.80
2022-11-11T09:13:25.091Z,11.80
2022-11-11T09:15:56.291Z,28.40
2022-11-11T09:18:24.557Z,28.00
2022-11-11T09:20:52.743Z,36.00
2022-11-11T09:23:20.974Z,33.20
2022-11-11T09:25:49.196Z,35.20
2022-11-11T09:28:17.723Z,15.00
2022-11-11T09:30:45.909Z,32.20
2022-11-11T09:33:18.403Z,26.60
2022-11-11T09:35:47.119Z,10.60
2022-11-11T09:38:15.856Z,17.00
2022-11-11T09:40:51.467Z,13.80
2022-11-11T09:43:26.446Z,6.40
2022-11-11T09:46:03.146Z,4.80
2022-11-11T09:48:42.593Z,3.40
2022-11-11T09:51:13.481Z,3.00
2022-11-11T09:53:43.649Z,1.80
2022-11-11T09:56:30.042Z,0.40
2022-11-11T09:59:01.965Z,1.00
2022-11-11T10:01:34.341Z,1.00
2022-11-11T10:04:09.276Z,3.00
2022-11-11T10:06:37.552Z,1.80
2022-11-11T10:09:08.467Z,1.00
2022-11-11T10:11:41.288Z,3.00
2022-11-11T10:14:09.487Z,2.20
2022-11-11T10:16:41.981Z,1.00
2022-11-11T10:19:19.522Z,2.60
2022-11-11T10:24:51.627Z,3.00
2022-11-11T10:27:21.863Z,1.00
2022-11-11T10:29:51.987Z,1.80
2022-11-11T10:32:21.549Z,1.00
2022-11-11T10:34:51.178Z,1.00
2022-11-11T10:37:21.169Z,1.00
2022-11-11T10:39:58.247Z,3.00
2022-11-11T10:42:30.826Z,1.00
2022-11-11T10:45:04.427Z,3.00
2022-11-11T10:47:44.176Z,1.80
2022-11-11T10:50:17.800Z,0.60
2022-11-11T10:52:47.325Z,2.20
2022-11-11T10:55:18.476Z,2.60
2022-11-11T10:57:48.206Z,3.20
2022-11-11T11:00:17.086Z,3.00
2022-11-11T11:02:48.261Z,1.00
2022-11-11T11:05:22.333Z,3.00
2022-11-11T11:07:52.097Z,1.40
2022-11-11T11:10:21.033Z,3.00
2022-11-11T11:12:52.479Z,3.00
2022-11-11T11:15:23.077Z,0.00
2022-11-11T11:17:54.910Z,2.20
2022-11-11T11:20:24.526Z,1.00
2022-11-11T11:22:56.757Z,1.00
2022-11-11T11:25:25.162Z,2.60
2022-11-11T11:27:54.410Z,3.00
2022-11-11T11:30:23.815Z,3.00
2022-11-11T11:32:59.086Z,4.00
2022-11-11T11:35:34.048Z,1.40
2022-11-11T11:38:03.201Z,1.00
2022-11-11T11:40:48.961Z,1.00
2022-11-11T11:43:28.291Z,1.40
2022-11-11T11:45:57.814Z,1.00
2022-11-11T11:48:32.441Z,1.80
2022-11-11T11:51:06.596Z,3.00
2022-11-11T11:53:40.495Z,3.60
2022-11-11T11:56:14.182Z,4.00
2022-11-11T11:58:48.669Z,3.60
2022-11-11T12:01:19.326Z,3.00
2022-11-11T12:04:02.812Z,3.20
2022-11-11T12:06:37.979Z,6.00
2022-11-11T12:09:12.657Z,3.00
2022-11-11T12:11:43.644Z,1.00
2022-11-11T12:14:25.170Z,4.00
2022-11-11T12:16:56.072Z,3.00
2022-11-11T12:19:35.267Z,1.80
2022-11-11T12:22:18.341Z,2.60
2022-11-11T12:24:50.894Z,3.00
2022-11-11T12:27:23.236Z,1.00
2022-11-11T12:30:01.385Z,3.00
2022-11-11T12:32:38.534Z,3.00
2022-11-11T12:35:18.443Z,2.60
2022-11-11T12:41:25.810Z,3.00
2022-11-11T12:44:00.286Z,3.00
2022-11-11T12:46:32.720Z,1.00
2022-11-11T12:49:06.876Z,0.00
2022-11-11T12:51:41.446Z,0.40
2022-11-11T12:54:18.124Z,3.00
2022-11-11T12:56:52.073Z,2.20
2022-11-11T12:59:24.657Z,1.00
2022-11-11T13:01:57.320Z,1.00
2022-11-11T13:04:34.593Z,1.00
2022-11-11T13:07:19.153Z,3.00
2022-11-11T13:10:01.348Z,0.00
2022-11-11T13:12:35.678Z,1.00
2022-11-11T13:15:08.485Z,0.80
2022-11-11T13:17:37.081Z,1.00
2022-11-11T13:20:06.948Z,3.00
2022-11-11T13:22:35.190Z,3.00
2022-11-11T13:25:07.621Z,4.40
2022-11-11T13:27:41.572Z,1.00
2022-11-11T13:30:36.336Z,6.80
2022-11-11T13:33:05.682Z,4.40
2022-11-11T13:35:37.580Z,10.00
2022-11-11T13:38:06.021Z,10.00
2022-11-11T13:40:38.875Z,3.80
2022-11-11T13:43:16.620Z,6.60
2022-11-11T13:45:44.992Z,7.00
2022-11-11T13:48:22.191Z,4.00
2022-11-11T13:50:50.385Z,3.60
2022-11-11T13:53:27.529Z,3.00
2022-11-11T13:55:55.896Z,12.00
2022-11-11T13:58:26.833Z,10.00
2022-11-11T14:00:59.868Z,9.00
2022-11-11T14:03:36.023Z,5.20
2022-11-11T14:06:33.830Z,3.40
2022-11-11T14:09:02.296Z,10.00
2022-11-11T14:11:37.179Z,4.00
2022-11-11T14:14:37.338Z,3.00
2022-11-11T14:17:07.284Z,6.00
2022-11-11T14:19:35.809Z,3.00
2022-11-11T14:22:05.147Z,1.00
2022-11-11T14:24:37.408Z,3.60
2022-11-11T14:27:06.402Z,4.00
2022-11-11T14:29:36.410Z,2.20
2022-11-11T14:32:13.709Z,1.80
2022-11-11T14:34:52.716Z,3.00
2022-11-11T14:37:30.728Z,1.00
2022-11-11T14:39:59.348Z,3.00
2022-11-11T14:42:47.976Z,2.60
2022-11-11T14:45:51.034Z,3.00
2022-11-11T14:48:50.556Z,3.60
2022-11-11T14:51:40.108Z,3.00
2022-11-11T14:54:16.404Z,6.00
2022-11-11T14:56:44.651Z,1.00
2022-11-11T14:59:13.900Z,1.40
2022-11-11T15:01:42.346Z,3.00
2022-11-11T15:04:10.869Z,1.00
2022-11-11T15:06:42.380Z,2.20
2022-11-11T15:09:15.907Z,3.00
2022-11-11T15:11:46.351Z,1.00
2022-11-11T15:14:24.317Z,0.00
2022-11-11T15:17:00.306Z,1.40
2022-11-11T15:19:37.098Z,2.60
2022-11-11T15:22:12.949Z,1.00
2022-11-11T15:24:46.319Z,2.20
2022-11-11T15:27:21.747Z,0.00
2022-11-11T15:29:58.178Z,3.00
2022-11-11T15:32:33.045Z,3.00
2022-11-11T15:35:14.611Z,1.00
2022-11-11T15:37:44.275Z,3.00
2022-11-11T15:40:20.625Z,2.20
2022-11-11T15:42:52.444Z,1.80
2022-11-11T15:45:25.220Z,3.00
2022-11-11T15:47:54.467Z,3.00
2022-11-11T15:50:32.145Z,1.00
2022-11-11T15:53:07.366Z,1.00
2022-11-11T15:55:37.828Z,0.20
2022-11-11T15:58:11.922Z,1.00
2022-11-11T16:00:40.218Z,1.00
2022-11-11T16:03:08.415Z,1.00
2022-11-11T16:05:37.055Z,1.00
2022-11-11T16:08:09.252Z,5.60
2022-11-11T16:10:38.819Z,0.80
2022-11-11T16:13:09.433Z,3.00
2022-11-11T16:15:41.035Z,1.00
2022-11-11T16:18:13.561Z,0.00
2022-11-11T16:20:42.655Z,1.00
2022-11-11T16:23:15.251Z,1.00
2022-11-11T16:25:43.492Z,1.00
2022-11-11T16:28:11.943Z,0.80
2022-11-11T16:30:40.676Z,0.80
2022-11-11T16:33:21.183Z,0.40
2022-11-11T16:35:49.582Z,0.40
2022-11-11T16:38:34.210Z,1.00
2022-11-11T16:41:02.436Z,1.00
2022-11-11T16:43:31.234Z,3.00
2022-11-11T16:46:03.072Z,0.20
2022-11-11T16:48:43.133Z,0.00
2022-11-11T16:51:12.490Z,0.00
2022-11-11T16:53:45.022Z,0.40
2022-11-11T16:56:22.060Z,1.00
2022-11-11T16:58:56.895Z,0.00
2022-11-11T17:01:25.246Z,0.00
2022-11-11T17:03:57.685Z,0.80
2022-11-11T17:06:49.648Z,1.00
2022-11-11T17:09:35.215Z,1.00
2022-11-11T17:12:03.863Z,6.00
2022-11-11T17:14:34.285Z,3.00
2022-11-11T17:17:03.026Z,1.00
2022-11-11T17:19:33.098Z,3.00
2022-11-11T17:22:07.635Z,3.00
2022-11-11T17:24:37.277Z,0.00
2022-11-11T17:27:05.947Z,1.40
2022-11-11T17:29:38.641Z,1.00
2022-11-11T17:32:09.933Z,1.00
2022-11-11T17:34:38.530Z,1.00
2022-11-11T17:37:06.755Z,1.00
2022-11-11T17:39:36.461Z,2.60
2022-11-11T17:42:04.736Z,1.00
2022-11-11T17:44:32.941Z,3.00
2022-11-11T17:47:01.169Z,9.60
2022-11-11T17:49:55.111Z,7.00
2022-11-11T17:52:17.674Z,4.00
2022-11-11T17:54:47.235Z,1.00
2022-11-11T17:57:15.465Z,3.40
2022-11-11T17:59:44.065Z,1.00
2022-11-11T18:02:12.805Z,4.00
2022-11-11T18:04:41.049Z,3.00
2022-11-11T18:07:09.466Z,2.60
2022-11-11T18:09:55.218Z,7.40
2022-11-11T18:12:24.817Z,6.80
2022-11-11T18:14:53.390Z,7.40
2022-11-11T18:17:22.205Z,4.00
2022-11-11T18:19:53.073Z,12.80
2022-11-11T18:22:23.121Z,5.20
2022-11-11T18:24:51.675Z,1.80
2022-11-11T18:27:19.872Z,4.00
2022-11-11T18:29:49.457Z,6.00
2022-11-11T18:32:17.641Z,3.20
2022-11-11T18:34:46.099Z,4.40
2022-11-11T18:37:14.318Z,9.00
2022-11-11T18:39:42.540Z,6.00
2022-11-11T18:42:11.076Z,2.60
2022-11-11T18:44:39.364Z,3.00
2022-11-11T18:47:09.081Z,4.00
2022-11-11T18:49:54.850Z,9.00
2022-11-11T18:52:23.174Z,6.80
2022-11-11T18:54:51.508Z,9.00
2022-11-11T18:57:19.705Z,6.40
2022-11-11T18:59:47.926Z,6.00
2022-11-11T19:02:17.599Z,6.40
2022-11-11T19:04:45.865Z,2.20
2022-11-11T19:07:14.662Z,3.00
2022-11-11T19:09:43.103Z,3.40
2022-11-11T19:12:11.310Z,3.00
2022-11-11T19:14:39.585Z,1.00
2022-11-11T19:17:10.063Z,1.00
2022-11-11T19:19:39.636Z,1.40
2022-11-11T19:22:07.928Z,1.40
2022-11-11T19:24:37.559Z,1.00
2022-11-11T19:27:06.090Z,3.40
2022-11-11T19:29:34.289Z,1.00
2022-11-11T19:32:02.680Z,1.00
2022-11-11T19:34:30.934Z,1.40
2022-11-11T19:37:01.893Z,0.00
2022-11-11T19:39:30.084Z,1.00
2022-11-11T19:42:00.898Z,1.00
2022-11-11T19:44:30.073Z,0.00
2022-11-11T19:46:59.577Z,2.60
2022-11-11T19:49:47.012Z,1.00
2022-11-11T19:52:16.652Z,0.00
2022-11-11T19:54:44.871Z,0.00
2022-11-11T19:57:13.521Z,1.00
2022-11-11T19:59:42.261Z,0.80
2022-11-11T20:02:11.641Z,0.00
2022-11-11T20:04:40.093Z,0.00
2022-11-11T20:07:08.873Z,3.60
2022-11-11T20:09:38.655Z,3.00
2022-11-11T20:12:08.011Z,3.60
2022-11-11T20:14:37.221Z,2.60
2022-11-11T20:17:05.984Z,3.00
2022-11-11T20:19:35.061Z,6.20
2022-11-11T20:22:06.163Z,3.80
2022-11-11T20:24:37.938Z,4.80
2022-11-11T20:27:08.016Z,5.80
2022-11-11T20:29:36.525Z,7.60
2022-11-11T20:32:04.845Z,5.40
2022-11-11T20:34:34.440Z,4.80
2022-11-11T20:37:02.990Z,6.40
2022-11-11T20:39:31.205Z,1.80
2022-11-11T20:41:59.471Z,6.80
2022-11-11T20:44:29.343Z,6.40
2022-11-11T20:46:58.015Z,5.20
2022-11-11T20:49:26.223Z,3.80
2022-11-11T20:51:54.535Z,3.00
2022-11-11T20:54:22.773Z,3.40
2022-11-11T20:56:51.861Z,3.40
2022-11-11T20:59:20.070Z,1.40
2022-11-11T21:01:50.113Z,3.00
2022-11-11T21:04:18.340Z,3.00
2022-11-11T21:06:46.572Z,3.00
2022-11-11T21:09:15.082Z,3.00
2022-11-11T21:11:43.297Z,3.40
2022-11-11T21:14:11.580Z,3.20
2022-11-11T21:16:39.875Z,3.20
2022-11-11T21:19:09.431Z,3.00
2022-11-11T21:21:37.642Z,3.40
2022-11-11T21:24:06.967Z,4.00
2022-11-11T21:26:35.814Z,1.00
2022-11-11T21:29:04.036Z,3.60
2022-11-11T21:31:33.450Z,0.40
2022-11-11T21:34:02.564Z,5.60
2022-11-11T21:36:33.412Z,4.00
2022-11-11T21:39:02.337Z,3.80
2022-11-11T21:41:31.682Z,5.20
2022-11-11T21:43:59.872Z,3.00
2022-11-11T21:46:28.460Z,4.00
2022-11-11T21:48:57.186Z,4.00
2022-11-11T21:51:25.968Z,4.80
2022-11-11T21:54:02.274Z,6.00
2022-11-11T21:56:31.678Z,4.00
2022-11-11T21:59:00.969Z,6.00
2022-11-11T22:01:30.846Z,4.40
2022-11-11T22:04:00.421Z,6.00
2022-11-11T22:06:28.650Z,3.00
2022-11-11T22:08:58.940Z,7.00
2022-11-11T22:11:28.043Z,7.00
2022-11-11T22:14:00.646Z,5.40
2022-11-11T22:16:29.390Z,4.00
2022-11-11T22:18:59.028Z,6.00
2022-11-11T22:21:28.383Z,6.60
2022-11-11T22:24:00.282Z,4.00
2022-11-11T22:26:29.916Z,2.00
2022-11-11T22:28:58.190Z,34.60
2022-11-11T22:31:27.232Z,8.80
2022-11-11T22:33:57.033Z,7.00
2022-11-11T22:36:25.291Z,5.60
2022-11-11T22:38:53.651Z,6.60
2022-11-11T22:41:24.431Z,7.00
2022-11-11T22:43:59.763Z,8.60
2022-11-11T22:46:29.264Z,13.60
2022-11-11T22:48:58.484Z,10.60
2022-11-11T22:51:28.119Z,7.80
2022-11-11T22:53:57.315Z,10.80
2022-11-11T22:56:26.974Z,6.80
2022-11-11T22:58:55.301Z,8.60
2022-11-11T23:01:29.108Z,9.00
2022-11-11T23:03:58.950Z,11.20
2022-11-11T23:06:27.986Z,8.20
2022-11-11T23:08:56.190Z,9.00
2022-11-11T23:11:26.427Z,7.80
2022-11-11T23:13:57.969Z,9.20
2022-11-11T23:16:26.162Z,9.00
2022-11-11T23:18:54.703Z,9.20
2022-11-11T23:21:23.871Z,7.40
2022-11-11T23:23:52.348Z,3.00
2022-11-11T23:26:21.962Z,9.00
2022-11-11T23:28:51.755Z,9.00
2022-11-11T23:31:20.976Z,9.00
2022-11-11T23:33:50.781Z,10.00
2022-11-11T23:36:20.042Z,14.40
2022-11-11T23:38:48.493Z,13.40
2022-11-11T23:41:16.745Z,9.80
2022-11-11T23:43:44.945Z,10.00
2022-11-11T23:46:14.531Z,5.60
2022-11-11T23:48:42.752Z,8.80
2022-11-11T23:51:10.943Z,8.80
2022-11-11T23:53:39.151Z,3.20
2022-11-11T23:56:07.620Z,5.20
2022-11-11T23:58:35.833Z,1.00
